Time;durP1;ratioP1;P1;durP2;ratioP2;P2;SDS_P1;SDS_P2;PMS_P1;PMS_P2;Temp;Humidity;BMP_temperature;BMP_pressure;BME280_temperature;BME280_humidity;BME280_pressure;Samples;Min_cycle;Max_cycle;Signal;HPM_P1;HPM_P2
2023/05/02 00:00:30;;;;;;;14.70;10.55;;;11.20;99.90;;;;;;5008573;28;20042;-68
2023/05/02 00:02:56;;;;;;;21.05;11.55;;;11.20;99.90;;;;;;5007624;28;20056;-68
2023/05/02 00:05:23;;;;;;;19.85;10.35;;;11.10;99.90;;;;;;5007676;28;20069;-69
2023/05/02 00:07:50;;;;;;;17.27;10.52;;;11.10;99.90;;;;;;5005265;28;20173;-68
2023/05/02 00:10:16;;;;;;;20.13;11.13;;;11.00;99.90;;;;;;5008486;28;20041;-68
2023/05/02 00:12:42;;;;;;;16.98;10.57;;;11.00;99.90;;;;;;5007576;28;20041;-69
2023/05/02 00:15:08;;;;;;;20.67;9.02;;;11.00;99.90;;;;;;5009600;28;20041;-68
2023/05/02 00:17:34;;;;;;;16.48;9.00;;;10.90;99.90;;;;;;5005791;28;20073;-69
2023/05/02 00:20:00;;;;;;;16.50;8.93;;;10.90;99.90;;;;;;5021117;28;20080;-68
2023/05/02 00:22:26;;;;;;;14.38;6.57;;;10.80;99.90;;;;;;5009245;28;20513;-68
2023/05/02 00:24:58;;;;;;;15.65;6.75;;;10.90;99.90;;;;;;5005601;28;20133;-68
2023/05/02 00:27:24;;;;;;;14.93;6.43;;;10.80;99.90;;;;;;5007184;28;20038;-68
2023/05/02 00:29:51;;;;;;;16.65;7.18;;;10.70;99.90;;;;;;5022278;28;20532;-67
2023/05/02 00:32:17;;;;;;;14.65;6.07;;;10.60;99.90;;;;;;5008986;28;20037;-67
2023/05/02 00:34:43;;;;;;;14.57;6.78;;;10.50;99.90;;;;;;5008775;28;20521;-68
2023/05/02 00:37:09;;;;;;;13.38;6.65;;;10.40;99.90;;;;;;5009159;28;20491;-68
2023/05/02 00:39:35;;;;;;;13.57;5.85;;;10.40;99.90;;;;;;4992141;28;20647;-67
2023/05/02 00:42:01;;;;;;;14.15;5.55;;;10.30;99.90;;;;;;5006795;28;20517;-68
2023/05/02 00:44:27;;;;;;;12.75;5.15;;;10.30;99.90;;;;;;4991220;28;20054;-67
2023/05/02 00:46:54;;;;;;;9.80;5.40;;;10.20;99.90;;;;;;5008930;28;20046;-68
2023/05/02 00:49:20;;;;;;;14.90;5.18;;;10.20;99.90;;;;;;5006895;28;20072;-68
2023/05/02 00:51:46;;;;;;;17.40;5.18;;;10.20;99.90;;;;;;5007788;28;20516;-68
2023/05/02 00:54:12;;;;;;;13.23;4.70;;;10.20;99.90;;;;;;5008640;28;20038;-68
2023/05/02 00:56:38;;;;;;;12.80;4.25;;;10.10;99.90;;;;;;5006770;28;20406;-67
2023/05/02 00:59:07;;;;;;;14.27;5.22;;;10.10;99.90;;;;;;5008871;28;20041;-67
2023/05/02 01:01:51;;;;;;;13.15;4.65;;;10.10;99.90;;;;;;5007673;28;20046;-67
2023/05/02 01:04:42;;;;;;;8.82;3.95;;;10.10;99.90;;;;;;5009680;28;20160;-68
2023/05/02 01:07:49;;;;;;;15.60;5.40;;;10.20;99.90;;;;;;5006749;28;20046;-67
2023/05/02 01:10:21;;;;;;;11.48;4.20;;;10.10;99.90;;;;;;4964140;28;20134;-67
2023/05/02 01:13:02;;;;;;;12.70;3.83;;;10.10;99.90;;;;;;5008016;28;20191;-67
2023/05/02 01:15:29;;;;;;;11.55;3.35;;;10.10;99.90;;;;;;5009941;28;20367;-67
2023/05/02 01:17:56;;;;;;;13.82;3.50;;;10.00;99.90;;;;;;5027719;28;20116;-68
2023/05/02 01:20:26;;;;;;;12.68;3.60;;;10.00;99.90;;;;;;4987140;28;20038;-69
2023/05/02 01:22:54;;;;;;;10.57;3.33;;;10.00;99.90;;;;;;5027915;28;20104;-67
2023/05/02 01:25:29;;;;;;;10.55;3.28;;;10.00;99.90;;;;;;5027789;28;20076;-67
2023/05/02 01:28:20;;;;;;;8.43;2.60;;;10.00;99.90;;;;;;5028192;28;20042;-67
2023/05/02 01:30:49;;;;;;;8.43;3.10;;;10.00;99.90;;;;;;5002048;28;20525;-67
2023/05/02 01:33:16;;;;;;;7.65;3.10;;;10.00;99.90;;;;;;5010989;28;20410;-68
2023/05/02 01:35:43;;;;;;;8.75;2.90;;;9.90;99.90;;;;;;5011913;28;20042;-67
2023/05/02 01:38:15;;;;;;;8.10;2.40;;;9.90;99.90;;;;;;5027759;28;20050;-67
2023/05/02 01:40:45;;;;;;;10.88;3.50;;;9.90;99.90;;;;;;5010387;28;20113;-67
2023/05/02 01:43:13;;;;;;;9.98;2.85;;;9.90;99.90;;;;;;5026844;28;20525;-68
2023/05/02 01:45:42;;;;;;;8.93;2.65;;;9.90;99.90;;;;;;5028081;28;20045;-68
2023/05/02 01:48:09;;;;;;;11.48;3.20;;;9.80;99.90;;;;;;5012654;28;20053;-68
2023/05/02 01:50:36;;;;;;;10.10;2.97;;;9.80;99.90;;;;;;5011393;28;20389;-68
2023/05/02 01:53:03;;;;;;;13.48;2.92;;;9.80;99.90;;;;;;5027715;28;20054;-68
2023/05/02 01:55:30;;;;;;;9.82;3.05;;;9.80;99.90;;;;;;5025686;28;20077;-68
2023/05/02 01:57:56;;;;;;;10.70;2.70;;;9.70;99.90;;;;;;5010935;28;20077;-68
2023/05/02 02:00:24;;;;;;;8.48;2.65;;;9.70;99.90;;;;;;5012354;28;20073;-67
2023/05/02 02:02:54;;;;;;;5.93;2.30;;;9.70;99.90;;;;;;5026273;28;20049;-67
2023/05/02 02:05:22;;;;;;;7.68;2.58;;;9.70;99.90;;;;;;5011563;28;20045;-68
2023/05/02 02:07:48;;;;;;;6.57;2.47;;;9.60;99.90;;;;;;5011860;28;20645;-68
2023/05/02 02:10:14;;;;;;;9.10;2.75;;;9.60;99.90;;;;;;5010281;28;20053;-68
2023/05/02 02:12:51;;;;;;;12.48;2.80;;;9.60;99.90;;;;;;5026905;28;20052;-68
2023/05/02 02:15:33;;;;;;;8.25;2.60;;;9.60;99.90;;;;;;5008881;28;20034;-68
2023/05/02 02:18:10;;;;;;;7.28;2.50;;;9.60;99.90;;;;;;5008494;28;20045;-68
2023/05/02 02:20:37;;;;;;;10.63;2.72;;;9.60;99.90;;;;;;5009503;28;20034;-68
2023/05/02 02:23:07;;;;;;;6.80;2.63;;;9.60;99.90;;;;;;5023993;28;20397;-67
2023/05/02 02:25:34;;;;;;;10.93;2.85;;;9.60;99.90;;;;;;4992151;28;20516;-68
2023/05/02 02:28:00;;;;;;;7.38;2.70;;;9.50;99.90;;;;;;5026854;28;20501;-68
2023/05/02 02:30:26;;;;;;;7.65;2.47;;;9.50;99.90;;;;;;5025476;28;20052;-68
2023/05/02 02:32:52;;;;;;;9.88;3.00;;;9.50;99.90;;;;;;4993292;28;20042;-68
2023/05/02 02:35:18;;;;;;;10.02;2.88;;;9.40;99.90;;;;;;5022903;28;20037;-68
2023/05/02 02:38:30;;;;;;;12.77;3.45;;;9.40;99.90;;;;;;5009283;28;20120;-67
2023/05/02 02:41:13;;;;;;;11.13;2.85;;;9.30;99.90;;;;;;4973226;28;20053;-68
2023/05/02 02:44:35;;;;;;;9.55;3.28;;;9.20;99.90;;;;;;4989572;28;20051;-68
2023/05/02 02:47:17;;;;;;;17.10;3.90;;;9.10;99.90;;;;;;4924406;29;20573;-68
2023/05/02 02:50:10;;;;;;;16.25;3.88;;;9.00;99.90;;;;;;4930407;29;20055;-68
2023/05/02 02:52:44;;;;;;;16.58;3.90;;;9.00;99.90;;;;;;5000526;28;20370;-68
2023/05/02 02:55:39;;;;;;;;;;;8.90;99.90;;;;;;5026754;28;20040;-68
2023/05/02 02:58:16;;;;;;;17.20;3.65;;;8.90;99.90;;;;;;4992651;28;19921;-68
2023/05/02 03:00:43;;;;;;;27.10;4.18;;;8.90;99.90;;;;;;5009281;28;20044;-67
2023/05/02 03:03:09;;;;;;;12.32;3.15;;;8.80;99.90;;;;;;5024723;28;20382;-67
2023/05/02 03:05:35;;;;;;;18.02;3.58;;;8.80;99.90;;;;;;5021823;28;20072;-69
2023/05/02 03:08:00;;;;;;;24.00;4.20;;;8.80;99.90;;;;;;5008867;28;20466;-68
2023/05/02 03:10:26;;;;;;;18.65;3.95;;;8.80;99.90;;;;;;5026358;28;20041;-68
2023/05/02 03:12:54;;;;;;;17.98;3.35;;;8.70;99.90;;;;;;5010093;28;20050;-69
2023/05/02 03:15:38;;;;;;;17.75;3.83;;;8.80;99.90;;;;;;5009424;28;20042;-68
2023/05/02 03:18:03;;;;;;;23.00;4.22;;;8.70;99.90;;;;;;5002886;28;20122;-69
2023/05/02 03:20:29;;;;;;;18.83;4.55;;;8.70;99.90;;;;;;5024347;28;20046;-69
2023/05/02 03:22:55;;;;;;;21.48;4.22;;;8.70;99.90;;;;;;5025302;28;20065;-69
2023/05/02 03:25:21;;;;;;;20.80;4.78;;;8.70;99.90;;;;;;5018968;28;20046;-68
2023/05/02 03:27:47;;;;;;;24.10;5.00;;;8.60;99.90;;;;;;5007853;28;20486;-69
2023/05/02 03:30:12;;;;;;;22.92;4.63;;;8.60;99.90;;;;;;5024881;28;20439;-69
2023/05/02 03:32:38;;;;;;;26.08;4.72;;;8.60;99.90;;;;;;5008128;28;20103;-69
2023/05/02 03:35:04;;;;;;;24.60;5.53;;;8.50;99.90;;;;;;5009961;28;20257;-69
2023/05/02 03:37:30;;;;;;;23.63;5.00;;;8.50;99.90;;;;;;5008265;28;20405;-68
2023/05/02 03:39:56;;;;;;;23.67;5.32;;;8.40;99.90;;;;;;5009351;28;20044;-68
2023/05/02 03:42:21;;;;;;;19.52;5.03;;;8.40;99.90;;;;;;5025601;28;20104;-68
2023/05/02 03:44:50;;;;;;;23.98;4.20;;;8.30;99.90;;;;;;5025716;28;20108;-69
2023/05/02 03:47:19;;;;;;;19.35;3.88;;;8.30;99.90;;;;;;4999895;28;20038;-68
2023/05/02 03:49:45;;;;;;;18.42;3.92;;;8.30;99.90;;;;;;5006817;28;20125;-68
2023/05/02 03:52:11;;;;;;;18.73;3.75;;;8.20;99.90;;;;;;5010543;28;20046;-68
2023/05/02 03:54:37;;;;;;;25.63;5.22;;;8.10;99.90;;;;;;5008887;28;20042;-68
2023/05/02 03:57:03;;;;;;;14.32;3.78;;;8.00;99.90;;;;;;5008533;28;20046;-68
2023/05/02 03:59:33;;;;;;;20.58;3.92;;;8.00;99.90;;;;;;5010406;28;20050;-68
2023/05/02 04:01:59;;;;;;;14.52;3.25;;;7.90;99.90;;;;;;5006980;28;20041;-68
2023/05/02 04:04:25;;;;;;;23.30;4.05;;;7.80;99.90;;;;;;5023943;28;20045;-68
2023/05/02 04:06:50;;;;;;;11.98;2.88;;;7.80;99.90;;;;;;5007013;28;20477;-69
2023/05/02 04:09:17;;;;;;;14.75;3.13;;;7.70;99.90;;;;;;5010491;28;20065;-68
2023/05/02 04:11:43;;;;;;;12.15;2.65;;;7.70;99.90;;;;;;5022101;28;20038;-69
2023/05/02 04:14:10;;;;;;;16.38;3.45;;;7.70;99.90;;;;;;5005010;28;20120;-68
2023/05/02 04:16:36;;;;;;;14.45;4.10;;;7.70;99.90;;;;;;5022078;28;20049;-68
2023/05/02 04:19:02;;;;;;;14.95;3.60;;;7.60;99.90;;;;;;5023181;28;20037;-68
2023/05/02 04:21:28;;;;;;;15.55;3.85;;;7.70;99.90;;;;;;5010017;28;20077;-68
2023/05/02 04:23:53;;;;;;;15.07;2.95;;;7.70;99.90;;;;;;5021733;28;20495;-68
2023/05/02 04:26:27;;;;;;;12.82;2.50;;;7.70;99.90;;;;;;5008244;28;20181;-68
2023/05/02 04:29:07;;;;;;;15.85;3.13;;;7.70;99.90;;;;;;4984946;28;20065;-68
2023/05/02 04:31:47;;;;;;;15.10;2.72;;;7.60;99.90;;;;;;4986861;28;20068;-69
2023/05/02 04:34:27;;;;;;;11.57;2.28;;;7.60;99.90;;;;;;5005891;28;20045;-68
2023/05/02 04:37:07;;;;;;;12.43;2.30;;;7.60;99.90;;;;;;5006579;28;20128;-69
2023/05/02 04:39:38;;;;;;;10.52;2.25;;;7.50;99.90;;;;;;4992100;28;20042;-68
2023/05/02 04:42:03;;;;;;;11.45;2.22;;;7.50;99.90;;;;;;5006933;28;20049;-68
2023/05/02 04:44:29;;;;;;;7.55;2.00;;;7.50;99.90;;;;;;5009022;28;20042;-68
2023/05/02 04:46:55;;;;;;;17.58;2.50;;;7.50;99.90;;;;;;5005107;28;20057;-68
2023/05/02 04:49:20;;;;;;;11.65;2.30;;;7.50;99.90;;;;;;5023819;28;20045;-69
2023/05/02 04:51:46;;;;;;;13.38;2.50;;;7.50;99.90;;;;;;5022730;28;20534;-69
2023/05/02 04:54:12;;;;;;;13.52;2.60;;;7.60;99.90;;;;;;5008727;28;20065;-68
2023/05/02 04:56:39;;;;;;;7.03;2.08;;;7.60;99.90;;;;;;5008798;28;20065;-68
2023/05/02 04:59:05;;;;;;;10.95;2.20;;;7.60;99.90;;;;;;5008797;28;20056;-68
2023/05/02 05:01:30;;;;;;;12.30;2.63;;;7.60;99.90;;;;;;5022233;28;20050;-68
2023/05/02 05:03:56;;;;;;;13.73;2.67;;;7.60;99.90;;;;;;4990977;28;20045;-68
2023/05/02 05:06:22;;;;;;;9.40;1.35;;;7.60;99.90;;;;;;5021865;28;20176;-69
2023/05/02 05:08:48;;;;;;;9.13;2.53;;;7.70;99.90;;;;;;5023932;28;20038;-68
2023/05/02 05:11:14;;;;;;;15.18;2.28;;;7.60;99.90;;;;;;5023206;28;20137;-68
2023/05/02 05:13:40;;;;;;;13.70;1.75;;;7.70;99.90;;;;;;5009479;28;20077;-68
2023/05/02 05:16:07;;;;;;;8.88;1.83;;;7.70;99.90;;;;;;5008666;28;20037;-68
2023/05/02 05:18:39;;;;;;;7.72;1.63;;;7.70;99.90;;;;;;5019130;28;20069;-68
2023/05/02 05:21:08;;;;;;;8.43;1.52;;;7.70;99.90;;;;;;5007494;28;20363;-68
2023/05/02 05:23:36;;;;;;;6.75;1.88;;;7.60;99.90;;;;;;5008101;28;20076;-68
2023/05/02 05:26:12;;;;;;;8.85;1.67;;;7.70;99.90;;;;;;5007606;28;20100;-68
2023/05/02 05:28:38;;;;;;;9.02;1.45;;;7.70;99.90;;;;;;5005989;28;20049;-68
2023/05/02 05:31:07;;;;;;;6.40;1.58;;;7.70;99.90;;;;;;5007982;28;20041;-68
2023/05/02 05:33:34;;;;;;;6.97;1.52;;;7.70;99.90;;;;;;5013279;28;20043;-68
2023/05/02 05:36:06;;;;;;;10.80;1.33;;;7.80;99.90;;;;;;5008938;28;20607;-68
2023/05/02 05:38:33;;;;;;;7.68;1.52;;;7.80;99.90;;;;;;5009270;28;20045;-68
2023/05/02 05:40:59;;;;;;;8.32;1.33;;;7.90;99.90;;;;;;5022904;28;20060;-68
2023/05/02 05:43:25;;;;;;;8.68;1.25;;;8.00;99.90;;;;;;5008742;28;20041;-68
2023/05/02 05:45:52;;;;;;;10.10;1.50;;;8.10;99.90;;;;;;5022118;28;20523;-68
2023/05/02 05:48:17;;;;;;;8.60;1.73;;;8.10;99.90;;;;;;5022123;28;20042;-68
2023/05/02 05:50:43;;;;;;;7.22;2.00;;;8.20;99.90;;;;;;5007691;28;20041;-68
2023/05/02 05:53:09;;;;;;;11.20;3.05;;;8.20;99.90;;;;;;5023491;28;20129;-68
2023/05/02 05:55:36;;;;;;;9.23;2.20;;;8.20;99.90;;;;;;5007736;28;20073;-68
2023/05/02 05:58:03;;;;;;;7.93;1.95;;;8.30;99.90;;;;;;5008937;28;20350;-68
2023/05/02 06:00:28;;;;;;;7.82;1.90;;;8.30;99.90;;;;;;5025439;28;20080;-68
2023/05/02 06:02:54;;;;;;;6.68;1.40;;;8.30;99.90;;;;;;5010724;28;20077;-68
2023/05/02 06:05:20;;;;;;;9.98;2.28;;;8.30;99.90;;;;;;5025156;28;20041;-68
2023/05/02 06:07:46;;;;;;;10.82;2.05;;;8.20;99.90;;;;;;5023848;28;20080;-68
2023/05/02 06:10:11;;;;;;;8.00;2.05;;;8.20;99.90;;;;;;5027435;28;20041;-68
2023/05/02 06:12:37;;;;;;;10.45;2.38;;;8.20;99.90;;;;;;5023989;28;20042;-68
2023/05/02 06:15:03;;;;;;;9.77;2.03;;;8.20;99.90;;;;;;5010589;28;20124;-68
2023/05/02 06:17:29;;;;;;;10.18;2.28;;;8.20;99.90;;;;;;5010889;28;20042;-68
2023/05/02 06:19:55;;;;;;;13.65;2.50;;;8.30;99.90;;;;;;5026306;28;20410;-68
2023/05/02 06:22:21;;;;;;;10.65;1.73;;;8.20;99.90;;;;;;5023822;28;20236;-68
2023/05/02 06:24:46;;;;;;;12.75;1.90;;;8.20;99.90;;;;;;5009938;28;20281;-69
2023/05/02 06:27:12;;;;;;;6.53;2.10;;;8.20;99.90;;;;;;4994519;28;20124;-68
2023/05/02 06:29:38;;;;;;;8.32;1.55;;;8.20;99.90;;;;;;5026865;28;20057;-68
2023/05/02 06:32:05;;;;;;;10.10;2.20;;;8.30;99.90;;;;;;5010248;28;20038;-69
2023/05/02 06:34:33;;;;;;;10.48;2.20;;;8.30;99.90;;;;;;5009411;28;20073;-69
2023/05/02 06:36:59;;;;;;;9.95;2.10;;;8.40;99.90;;;;;;5009904;28;20402;-68
2023/05/02 06:39:25;;;;;;;9.32;2.15;;;8.40;99.90;;;;;;5024036;28;20034;-68
2023/05/02 06:41:55;;;;;;;9.32;2.22;;;8.50;99.90;;;;;;5007359;28;20046;-69
2023/05/02 06:44:20;;;;;;;9.75;2.15;;;8.60;99.90;;;;;;5010526;28;20049;-68
2023/05/02 06:46:46;;;;;;;11.48;2.58;;;8.70;99.90;;;;;;5008203;28;20498;-68
2023/05/02 06:49:12;;;;;;;13.18;2.20;;;8.70;99.90;;;;;;5011003;28;20083;-68
2023/05/02 06:51:37;;;;;;;9.45;2.53;;;8.70;99.90;;;;;;5007776;28;20364;-69
2023/05/02 06:54:03;;;;;;;10.05;2.00;;;8.70;99.90;;;;;;5011047;28;20041;-69
2023/05/02 06:56:30;;;;;;;9.60;2.33;;;8.70;99.90;;;;;;5009727;28;20045;-69
2023/05/02 06:58:55;;;;;;;9.90;1.98;;;8.70;99.90;;;;;;5022677;28;20042;-68
2023/05/02 07:01:21;;;;;;;7.88;1.83;;;8.70;99.90;;;;;;5006560;28;20046;-70
2023/05/02 07:03:47;;;;;;;13.82;2.50;;;8.80;99.90;;;;;;5009439;28;20387;-68
2023/05/02 07:06:13;;;;;;;9.32;1.90;;;8.80;99.90;;;;;;5005981;28;20499;-69
2023/05/02 07:08:38;;;;;;;6.57;2.00;;;8.70;99.90;;;;;;5007878;28;20519;-69
2023/05/02 07:11:04;;;;;;;10.50;2.05;;;8.80;99.90;;;;;;5006106;28;20057;-69
2023/05/02 07:13:30;;;;;;;11.48;2.28;;;8.70;99.90;;;;;;5009381;28;20136;-69
2023/05/02 07:15:56;;;;;;;8.27;1.67;;;8.80;99.90;;;;;;5007645;28;20129;-68
2023/05/02 07:18:22;;;;;;;11.10;1.75;;;8.80;99.90;;;;;;5004163;28;20053;-68
2023/05/02 07:20:47;;;;;;;12.70;2.30;;;8.80;99.90;;;;;;4992326;28;20038;-68
2023/05/02 07:23:13;;;;;;;14.25;2.50;;;8.90;99.90;;;;;;5022833;28;20398;-68
2023/05/02 07:25:39;;;;;;;11.40;2.30;;;9.00;99.90;;;;;;5024885;28;20053;-68
2023/05/02 07:28:06;;;;;;;13.02;2.03;;;9.10;99.90;;;;;;5021817;28;20049;-68
2023/05/02 07:30:32;;;;;;;9.18;2.28;;;9.10;99.90;;;;;;5023668;28;20135;-69
2023/05/02 07:32:57;;;;;;;8.93;2.20;;;9.10;99.90;;;;;;5007168;28;20125;-68
2023/05/02 07:35:23;;;;;;;9.82;2.10;;;9.10;99.90;;;;;;5009596;28;20512;-68
2023/05/02 07:37:49;;;;;;;9.10;2.42;;;9.30;99.90;;;;;;5024946;28;20072;-68
2023/05/02 07:40:14;;;;;;;8.25;2.17;;;9.40;99.90;;;;;;5009651;28;20044;-68
2023/05/02 07:42:40;;;;;;;8.68;2.33;;;9.40;99.90;;;;;;5003517;28;20038;-68
2023/05/02 07:45:07;;;;;;;10.02;2.20;;;9.40;99.90;;;;;;4991547;28;20384;-68
2023/05/02 07:47:33;;;;;;;10.02;2.50;;;9.40;99.90;;;;;;5021615;28;20077;-68
2023/05/02 07:49:59;;;;;;;10.95;2.38;;;9.40;99.90;;;;;;5008993;28;20127;-68
2023/05/02 07:52:25;;;;;;;13.68;2.63;;;9.40;99.90;;;;;;5006126;28;20089;-69
2023/05/02 07:54:51;;;;;;;10.95;2.85;;;9.30;99.90;;;;;;5008927;28;20053;-69
2023/05/02 07:57:17;;;;;;;10.93;2.08;;;9.20;99.90;;;;;;5023220;28;20441;-68
2023/05/02 07:59:43;;;;;;;8.38;2.20;;;9.00;99.90;;;;;;5016361;28;20509;-69
2023/05/02 08:02:09;;;;;;;10.65;2.97;;;8.90;99.90;;;;;;5021123;28;20038;-68
2023/05/02 08:04:35;;;;;;;8.13;2.30;;;8.90;99.90;;;;;;5025051;28;20046;-68
2023/05/02 08:07:01;;;;;;;7.95;1.77;;;8.90;99.90;;;;;;5022158;28;20053;-68
2023/05/02 08:09:27;;;;;;;7.80;2.33;;;9.00;99.90;;;;;;5003889;28;20041;-68
2023/05/02 08:11:53;;;;;;;8.25;2.20;;;9.10;99.90;;;;;;5006605;28;20044;-68
2023/05/02 08:14:19;;;;;;;10.40;1.98;;;9.10;99.90;;;;;;5005196;28;20034;-68
2023/05/02 08:16:45;;;;;;;8.07;1.73;;;9.10;99.90;;;;;;5006729;28;20038;-68
2023/05/02 08:19:11;;;;;;;8.23;2.10;;;9.20;99.90;;;;;;5007900;28;20064;-68
2023/05/02 08:21:36;;;;;;;6.32;1.85;;;9.20;99.90;;;;;;5022218;28;20034;-68
2023/05/02 08:24:02;;;;;;;7.55;1.40;;;9.10;99.90;;;;;;5006656;28;20357;-68
2023/05/02 08:26:28;;;;;;;10.43;2.00;;;9.10;99.90;;;;;;5006974;28;20046;-68
2023/05/02 08:28:54;;;;;;;13.10;2.55;;;9.20;99.90;;;;;;5006672;28;20568;-68
2023/05/02 08:31:20;;;;;;;7.05;1.80;;;9.20;99.90;;;;;;5006629;28;20073;-68
2023/05/02 08:33:46;;;;;;;7.55;1.70;;;9.20;99.90;;;;;;5021057;28;20041;-68
2023/05/02 08:36:13;;;;;;;10.15;1.63;;;9.30;99.90;;;;;;4988882;28;20037;-67
2023/05/02 08:38:40;;;;;;;8.35;2.20;;;9.30;99.90;;;;;;5006003;28;20045;-67
2023/05/02 08:41:10;;;;;;;10.38;2.20;;;9.40;99.90;;;;;;5008398;28;20498;-67
2023/05/02 08:43:38;;;;;;;7.53;1.73;;;9.50;99.90;;;;;;5005487;28;20053;-67
2023/05/02 08:46:08;;;;;;;6.65;2.42;;;9.50;99.90;;;;;;5011407;28;20050;-67
2023/05/02 08:48:38;;;;;;;7.38;1.73;;;9.70;99.90;;;;;;5008201;28;20080;-67
2023/05/02 08:51:11;;;;;;;10.10;2.30;;;9.70;99.90;;;;;;5007793;28;20497;-68
2023/05/02 08:53:38;;;;;;;10.82;2.05;;;9.70;99.90;;;;;;5019354;28;20057;-68
2023/05/02 08:56:06;;;;;;;7.90;2.40;;;9.70;99.90;;;;;;5004980;28;20046;-67
2023/05/02 08:58:32;;;;;;;11.98;2.00;;;9.70;99.90;;;;;;5008242;28;20033;-67
2023/05/02 09:01:03;;;;;;;7.85;1.88;;;9.80;99.90;;;;;;5007789;28;20173;-67
2023/05/02 09:03:34;;;;;;;9.63;1.80;;;9.90;99.90;;;;;;5004382;28;20050;-67
2023/05/02 09:06:06;;;;;;;10.40;2.35;;;10.00;99.90;;;;;;5022269;28;20046;-67
2023/05/02 09:08:33;;;;;;;10.30;2.08;;;10.10;99.90;;;;;;5008465;28;20408;-67
2023/05/02 09:11:00;;;;;;;6.90;1.77;;;10.20;99.90;;;;;;5010336;28;20413;-67
2023/05/02 09:13:33;;;;;;;7.15;2.13;;;10.20;99.90;;;;;;5007992;28;20077;-67
2023/05/02 09:16:04;;;;;;;7.40;1.80;;;10.20;99.90;;;;;;4987808;28;20045;-67
2023/05/02 09:18:39;;;;;;;6.78;1.88;;;10.20;99.90;;;;;;5007352;28;20030;-67
2023/05/02 09:21:10;;;;;;;4.35;1.63;;;10.10;99.50;;;;;;5007510;28;20038;-67
2023/05/02 09:23:37;;;;;;;6.30;1.58;;;10.00;99.00;;;;;;5007946;28;20050;-67
2023/05/02 09:26:30;;;;;;;10.85;1.73;;;10.10;99.70;;;;;;5024408;28;20517;-67
2023/05/02 09:28:57;;;;;;;7.50;1.75;;;10.30;98.50;;;;;;5023052;28;20135;-68
2023/05/02 09:31:25;;;;;;;9.48;1.75;;;10.50;99.50;;;;;;5008780;28;20489;-67
2023/05/02 09:33:51;;;;;;;4.88;1.63;;;10.60;97.10;;;;;;5007338;28;20054;-68
2023/05/02 09:36:18;;;;;;;10.55;1.80;;;10.60;98.30;;;;;;5012667;28;20045;-68
2023/05/02 09:38:46;;;;;;;8.43;1.90;;;10.60;97.80;;;;;;5026973;28;20052;-67
2023/05/02 09:41:12;;;;;;;5.93;1.73;;;10.60;98.10;;;;;;5024277;28;20116;-67
2023/05/02 09:43:39;;;;;;;6.45;2.13;;;10.60;98.50;;;;;;5026376;28;20041;-68
2023/05/02 09:46:10;;;;;;;7.22;1.83;;;10.60;97.80;;;;;;5010118;28;20357;-68
2023/05/02 09:48:56;;;;;;;7.78;1.80;;;10.60;97.70;;;;;;5025975;28;20048;-68
2023/05/02 09:51:24;;;;;;;9.27;1.75;;;10.60;96.50;;;;;;5009671;28;20096;-66
2023/05/02 09:53:50;;;;;;;3.60;1.30;;;10.60;97.50;;;;;;5012422;28;20486;-67
2023/05/02 09:56:17;;;;;;;7.30;1.52;;;10.70;98.80;;;;;;5013175;28;20072;-66
2023/05/02 09:58:43;;;;;;;10.68;1.55;;;10.80;98.20;;;;;;5010954;28;20477;-66
2023/05/02 10:01:18;;;;;;;7.13;1.60;;;10.70;97.30;;;;;;5009210;28;20034;-66
2023/05/02 10:03:48;;;;;;;7.35;1.70;;;10.70;98.70;;;;;;5011984;28;20536;-66
2023/05/02 10:06:19;;;;;;;6.63;1.60;;;10.80;98.30;;;;;;5009911;28;20176;-67
2023/05/02 10:08:46;;;;;;;9.13;1.83;;;10.90;97.80;;;;;;5011806;28;20041;-67
2023/05/02 10:11:13;;;;;;;4.35;1.45;;;11.00;98.50;;;;;;5012038;28;20037;-67
2023/05/02 10:13:41;;;;;;;6.35;1.40;;;11.30;97.60;;;;;;5011401;28;20121;-67
2023/05/02 10:16:08;;;;;;;7.78;1.50;;;11.40;97.00;;;;;;5011006;28;20490;-68
2023/05/02 10:18:56;;;;;;;4.30;1.20;;;11.60;97.00;;;;;;5008629;28;20033;-67
2023/05/02 10:21:28;;;;;;;5.97;1.35;;;11.80;96.10;;;;;;5009740;28;20030;-67
2023/05/02 10:23:55;;;;;;;4.03;1.00;;;12.30;96.60;;;;;;5011084;28;20057;-67
2023/05/02 10:26:22;;;;;;;4.72;1.23;;;12.50;96.30;;;;;;5012107;28;20041;-67
2023/05/02 10:28:52;;;;;;;5.65;1.23;;;12.60;95.50;;;;;;5010276;28;20042;-67
2023/05/02 10:31:18;;;;;;;8.07;1.48;;;12.70;95.40;;;;;;5009280;28;20052;-68
2023/05/02 10:33:49;;;;;;;4.05;0.85;;;12.60;94.80;;;;;;5012946;28;20049;-68
2023/05/02 10:36:18;;;;;;;3.70;1.10;;;12.50;93.60;;;;;;5011842;28;20088;-68
2023/05/02 10:38:44;;;;;;;5.25;1.00;;;12.30;94.20;;;;;;5008638;28;20096;-67
2023/05/02 10:41:21;;;;;;;2.47;0.73;;;12.20;93.50;;;;;;5011572;28;20045;-68
2023/05/02 10:43:48;;;;;;;3.97;1.02;;;12.30;93.70;;;;;;5010427;28;20049;-66
2023/05/02 10:46:40;;;;;;;5.05;0.65;;;12.10;93.50;;;;;;5008112;28;20441;-65
2023/05/02 10:49:10;;;;;;;3.05;0.77;;;12.10;93.30;;;;;;5007379;28;20030;-66
2023/05/02 10:51:38;;;;;;;3.67;0.77;;;12.20;93.90;;;;;;5008988;28;20088;-65
2023/05/02 10:54:16;;;;;;;5.03;1.00;;;12.50;93.50;;;;;;5009768;28;20061;-65
2023/05/02 10:57:02;;;;;;;4.13;0.52;;;12.80;92.30;;;;;;5011037;28;20132;-65
2023/05/02 10:59:30;;;;;;;4.35;0.70;;;13.30;92.70;;;;;;5009483;28;20042;-65
2023/05/02 11:01:56;;;;;;;3.47;0.68;;;13.80;92.30;;;;;;5009505;28;20038;-67
2023/05/02 11:04:23;;;;;;;2.47;0.63;;;13.90;90.80;;;;;;5010897;28;20034;-66
2023/05/02 11:06:58;;;;;;;2.08;0.75;;;13.60;87.20;;;;;;5008503;28;20038;-66
2023/05/02 11:09:23;;;;;;;3.42;0.70;;;13.60;88.90;;;;;;5006837;28;20056;-66
2023/05/02 11:11:51;;;;;;;2.40;0.65;;;13.50;89.10;;;;;;5011165;28;20041;-66
2023/05/02 11:14:40;;;;;;;4.05;0.50;;;13.60;90.60;;;;;;5010038;28;20121;-66
2023/05/02 11:17:07;;;;;;;2.13;0.40;;;13.60;86.80;;;;;;5003586;28;20532;-66
2023/05/02 11:19:45;;;;;;;2.85;0.63;;;13.30;88.10;;;;;;5008756;28;20042;-68
2023/05/02 11:22:17;;;;;;;2.22;0.60;;;13.10;89.20;;;;;;5026124;28;20089;-65
2023/05/02 11:24:46;;;;;;;2.50;0.63;;;13.00;88.90;;;;;;5009973;28;20050;-63
2023/05/02 11:27:30;;;;;;;5.85;0.98;;;12.80;89.70;;;;;;5011247;28;20099;-68
2023/05/02 11:29:58;;;;;;;4.85;0.70;;;12.60;88.30;;;;;;5005680;28;20050;-66
2023/05/02 11:32:44;;;;;;;5.70;0.60;;;12.40;90.70;;;;;;5009964;28;20498;-66
2023/05/02 11:35:22;;;;;;;3.30;0.65;;;12.30;91.10;;;;;;5007612;28;20050;-70
2023/05/02 11:38:10;;;;;;;2.35;0.50;;;12.20;90.80;;;;;;5008827;28;20045;-70
2023/05/02 11:40:36;;;;;;;2.63;0.47;;;12.30;90.80;;;;;;5007160;28;20080;-74
2023/05/02 11:43:15;;;;;;;3.95;0.80;;;12.30;90.10;;;;;;5009664;28;20210;-75
2023/05/02 11:45:42;;;;;;;4.35;0.90;;;12.60;91.10;;;;;;5023470;28;20048;-74
2023/05/02 11:48:10;;;;;;;2.90;0.75;;;12.70;90.00;;;;;;5008753;28;20560;-71
2023/05/02 11:50:50;;;;;;;2.50;0.63;;;12.80;90.30;;;;;;5010353;28;20036;-74
2023/05/02 11:53:24;;;;;;;2.53;0.63;;;12.60;88.40;;;;;;5008448;28;20048;-74
2023/05/02 11:56:01;;;;;;;5.05;0.50;;;12.60;89.20;;;;;;5025930;28;20040;-74
2023/05/02 11:58:31;;;;;;;3.20;0.70;;;12.60;89.40;;;;;;4996223;28;20073;-74
2023/05/02 12:00:57;;;;;;;4.38;0.90;;;12.50;90.30;;;;;;5029091;28;20099;-74
2023/05/02 12:03:28;;;;;;;3.22;1.00;;;12.40;90.70;;;;;;5026656;28;20059;-70
2023/05/02 12:05:55;;;;;;;2.88;0.50;;;12.30;91.20;;;;;;5009778;28;20045;-73
2023/05/02 12:08:28;;;;;;;2.15;0.63;;;12.30;91.60;;;;;;5024881;28;20512;-80
2023/05/02 12:10:56;;;;;;;3.47;0.73;;;12.30;91.30;;;;;;4992914;28;20046;-81
2023/05/02 12:13:26;;;;;;;3.35;0.70;;;12.10;92.10;;;;;;4992133;28;20042;-72
2023/05/02 12:15:53;;;;;;;6.40;1.02;;;11.90;92.30;;;;;;5001874;28;20132;-73
2023/05/02 12:18:22;;;;;;;2.65;0.57;;;11.80;93.40;;;;;;5024300;28;20034;-72
2023/05/02 12:20:52;;;;;;;4.82;0.90;;;11.80;93.80;;;;;;5028150;28;20084;-75
2023/05/02 12:23:20;;;;;;;4.65;1.23;;;11.80;94.00;;;;;;5026279;28;20534;-74
2023/05/02 12:25:45;;;;;;;4.75;1.00;;;11.80;93.90;;;;;;5010159;28;20048;-74
2023/05/02 12:28:11;;;;;;;4.43;0.93;;;11.70;93.70;;;;;;5024399;28;20120;-74
2023/05/02 12:30:39;;;;;;;5.05;0.77;;;11.70;94.30;;;;;;5007411;28;20076;-74
2023/05/02 12:33:05;;;;;;;4.25;1.13;;;11.80;94.40;;;;;;5003870;28;20137;-74
2023/05/02 12:35:32;;;;;;;2.50;0.70;;;11.90;94.30;;;;;;5024069;28;20096;-74
2023/05/02 12:38:19;;;;;;;3.10;0.90;;;12.00;94.10;;;;;;5007818;28;20037;-74
2023/05/02 12:40:49;;;;;;;5.65;0.98;;;12.10;94.50;;;;;;4990325;28;20037;-74
2023/05/02 12:43:15;;;;;;;4.15;1.00;;;12.10;94.30;;;;;;5023163;28;20445;-74
2023/05/02 12:45:41;;;;;;;2.08;0.70;;;12.20;94.90;;;;;;5010186;28;20037;-74
2023/05/02 12:48:26;;;;;;;2.63;0.70;;;12.30;94.00;;;;;;5012390;28;20069;-75
2023/05/02 12:50:54;;;;;;;7.82;1.23;;;12.30;94.30;;;;;;5015515;28;20088;-75
2023/05/02 12:53:42;;;;;;;2.75;0.70;;;12.10;94.40;;;;;;5009190;28;20052;-73
2023/05/02 12:56:09;;;;;;;3.00;0.68;;;12.00;94.20;;;;;;5018629;28;20077;-75
2023/05/02 12:58:46;;;;;;;6.50;1.23;;;11.90;94.60;;;;;;5037344;28;20505;-75